Index of /documents/rfc/mibs/private.mibs/

NameLast ModifiedSizeType
../ -  Directory
3com.txt1993-Mar-26 00:00:000.6Ktext/plain; charset=utf-8
README2001-Sep-04 00:00:000.2Ktext/plain; charset=utf-8
acc.mib1995-Sep-05 00:00:00537.0Kapplication/octet-stream
artel.mib1993-Sep-28 00:00:0073.2Kapplication/octet-stream
asante-hub1012.mib1993-Feb-23 00:00:00122.9Kapplication/octet-stream
att-smart-hubs1991-Aug-05 00:00:0020.7Kapplication/octet-stream
att-smart-hubs.txt1991-Aug-07 00:00:0059.8Ktext/plain; charset=utf-8
att_ds1.mib1993-May-19 00:00:0012.0Kapplication/octet-stream
att_ds3.mib1993-May-19 00:00:0012.9Kapplication/octet-stream
att_efr.mib1993-May-21 00:00:0033.1Kapplication/octet-stream
att_fr.mib1993-May-19 00:00:0015.8Kapplication/octet-stream
att_sip.mib1993-May-19 00:00:0013.0Kapplication/octet-stream
att_smds.mib1993-May-19 00:00:0035.1Kapplication/octet-stream
att_sys.mib1993-May-19 00:00:0010.2Kapplication/octet-stream
banyan11992-May-28 00:00:0036.7Kapplication/octet-stream
bellcore-atmExtv1-00.mib1994-Jul-15 00:00:005.6Kapplication/octet-stream
bellcore-atmExtv2-00.txt1994-Jul-15 00:00:0019.4Ktext/plain; charset=utf-8
bellcore-frxaomv2-00.txt1994-Oct-07 00:00:0017.3Ktext/plain; charset=utf-8
bellcore-fyiTrap-00.txt1994-Jan-08 00:00:0013.8Ktext/plain; charset=utf-8
bellcore-smds.mib1992-Aug-27 00:00:00157.7Kapplication/octet-stream
bellcore-smds.txt1992-Aug-27 00:00:00157.7Ktext/plain; charset=utf-8
bellcore-smdsxaomv1-00.txt1994-Jul-15 00:00:0083.0Ktext/plain; charset=utf-8
bellcore-tcav1-00.mib1993-Dec-13 00:00:005.9Kapplication/octet-stream
bellcore-tcav1-01.mib1994-Aug-03 00:00:009.3Kapplication/octet-stream
bellcore-tcav2-00.txt1993-Dec-13 00:00:0023.2Ktext/plain; charset=utf-8
bellcore-tcav2-01.txt1994-Aug-03 00:00:0026.5Ktext/plain; charset=utf-8
cabletron.mib1998-Feb-19 00:00:000.4Kapplication/octet-stream
chipcom-agent.mib1993-Sep-28 00:00:0019.6Kapplication/octet-stream
chipcom-composite.mib1993-Oct-19 00:00:00323.8Kapplication/octet-stream
chipcom-conc.mib1993-Sep-28 00:00:0052.6Kapplication/octet-stream
chipcom-dot1dBridgeExp.mib1993-Sep-28 00:00:0029.5Kapplication/octet-stream
chipcom-dot5Exp.mib1993-Sep-28 00:00:0028.0Kapplication/octet-stream
chipcom-enet.mib1993-Oct-19 00:00:0021.1Kapplication/octet-stream
chipcom-fddinet.mib1993-Oct-19 00:00:0013.6Kapplication/octet-stream
chipcom-galactca.mib1994-Jul-15 00:00:0098.0Kapplication/octet-stream
chipcom-module.mib1993-Oct-19 00:00:00174.2Kapplication/octet-stream
chipcom-net.mib1993-Oct-19 00:00:0012.4Kapplication/octet-stream
chipcom-trnet.mib1993-Oct-19 00:00:0064.0Kapplication/octet-stream
cisco.txt1993-Mar-26 00:00:000.3Ktext/plain; charset=utf-8
compex-in3000.mib1993-Jul-27 00:00:0067.4Kapplication/octet-stream
crescendo-adapter.mib1992-Feb-21 00:00:0013.6Kapplication/octet-stream
crescendo-concentrator.mib1992-Feb-21 00:00:0027.4Kapplication/octet-stream
ctron-brdg.mib1992-Aug-17 00:00:0025.0Kapplication/octet-stream
ctron-chassis.mib1992-Aug-17 00:00:0019.7Kapplication/octet-stream
ctron-common.mib1992-Aug-17 00:00:0046.1Kapplication/octet-stream
ctron-irm3.mib1992-Aug-17 00:00:0077.8Kapplication/octet-stream
ctron-oids.mib1992-Jul-24 00:00:0012.9Kapplication/octet-stream
ctron-rrev4.mib1992-Aug-17 00:00:0075.6Kapplication/octet-stream
david.mib1992-Feb-19 00:00:0060.0Kapplication/octet-stream
david.txt1990-Nov-22 00:00:00113.0Ktext/plain; charset=utf-8
digital-technology.mib1993-Sep-28 00:00:003.5Kapplication/octet-stream
ex0.mib1996-Feb-23 00:00:003.0Kapplication/octet-stream
farallon-netopia.mib1995-Nov-28 00:00:00240.3Kapplication/octet-stream
fddi350-mib.mib1995-Feb-03 00:00:0067.4Kapplication/octet-stream
fibermux.mib1990-Sep-24 00:00:006.3Kapplication/octet-stream
fibermux.txt1990-Sep-24 00:00:006.5Ktext/plain; charset=utf-8
gandalf-router.mib1994-Oct-07 00:00:00126.8Kapplication/octet-stream
hls-bridge.mib1991-Jul-08 00:00:00117.1Kapplication/octet-stream
hp-unix1992-Feb-15 00:00:0024.4Kapplication/octet-stream
ibm-atm100.mib1994-May-04 00:00:0014.8Kapplication/octet-stream
ibm-hub-mib.txt1994-May-18 00:00:00473.2Ktext/plain; charset=utf-8
ibm-rxr-mib.txt1994-Jan-08 00:00:0092.1Ktext/plain; charset=utf-8
ibm-wlan.mib1995-Jan-05 00:00:0023.9Kapplication/octet-stream
ibm2210.mib1994-Nov-18 00:00:0017.6Kapplication/octet-stream
ibm6611.mib1994-Sep-22 00:00:00660.0Kapplication/octet-stream
ibmas400.ibmcltm1994-Sep-22 00:00:0044.4Kapplication/octet-stream
kinetics.mib1993-Mar-26 00:00:000.4Kapplication/octet-stream
lanart.mib1995-Feb-03 00:00:006.3Kapplication/octet-stream
lannet.mib1993-Dec-13 00:00:0095.4Kapplication/octet-stream
lanprobe-mib-old1992-Sep-11 00:00:0025.4Kapplication/octet-stream
lanprobe.mib1996-Dec-11 00:00:00150.2Kapplication/octet-stream
lantern.mib1992-Jul-20 00:00:00128.6Kapplication/octet-stream
lean.mib1995-Nov-03 00:00:00172.2Kapplication/octet-stream
ncd-mib.txt1990-Oct-16 00:00:0047.4Ktext/plain; charset=utf-8
ncd.mib1990-Oct-16 00:00:0021.6Kapplication/octet-stream
ncr.mib1993-Jul-27 00:00:0077.0Kapplication/octet-stream
net-frx0301013105.mib1998-Oct-30 00:00:00132.9Kapplication/octet-stream
net-frx20101.mib1994-Apr-07 00:00:0068.5Kapplication/octet-stream
net-frx20102.mib1994-Oct-07 00:00:0071.5Kapplication/octet-stream
net-frx20104.mib1995-Jun-14 00:00:0073.6Kapplication/octet-stream
net-frx20302.mib1996-Jul-24 00:00:00126.5Kapplication/octet-stream
net-frx20401.mib1997-Jul-10 00:00:00127.5Kapplication/octet-stream
net-frx30101.mib1998-Oct-30 00:00:00133.7Kapplication/octet-stream
nmc.mib1996-Apr-18 00:00:0027.8Kapplication/octet-stream
novell-ipx.mib1994-May-03 00:00:0042.2Kapplication/octet-stream
novell-nlsp.mib1993-Nov-10 00:00:0057.2Kapplication/octet-stream
novell-rip-sap.mib1994-May-03 00:00:0012.7Kapplication/octet-stream
octel-vmxdial.mib1994-Nov-04 00:00:0020.5Kapplication/octet-stream
ods-ethernet-concentrator.mib1991-Jun-17 00:00:0082.9Kapplication/octet-stream
ods-token-ring-mau.mib1991-Jun-17 00:00:0030.3Kapplication/octet-stream
ods.mib1990-Sep-21 00:00:0022.9Kapplication/octet-stream
ods.txt1990-Nov-22 00:00:0088.8Ktext/plain; charset=utf-8
olivetti.mib1994-Sep-22 00:00:00172.2Kapplication/octet-stream
olivetti_mibdef.txt1994-Nov-21 00:00:00181.4Ktext/plain; charset=utf-8
pb.mib1996-Apr-18 00:00:009.8Kapplication/octet-stream
plaintree-switch.mib1995-Feb-03 00:00:0016.3Kapplication/octet-stream
proteon-cnx500.mib1993-Apr-09 00:00:0037.2Kapplication/octet-stream
proteon-dnx300.mib1993-Apr-09 00:00:0037.0Kapplication/octet-stream
proteon-p4100.mib1993-Apr-09 00:00:0076.5Kapplication/octet-stream
range.mib1995-Dec-12 00:00:005.8Kapplication/octet-stream
retix-local-bridge1993-Apr-08 00:00:0054.2Kapplication/octet-stream
retix-local-bridge-router1993-Jan-13 00:00:0038.8Kapplication/octet-stream
retix-metrolan.mib1996-Oct-11 00:00:0018.8Kapplication/octet-stream
retix-remote-bridge1995-Jun-21 00:00:00156.0Kapplication/octet-stream
retix-rx70001995-Sep-05 00:00:00516.9Kapplication/octet-stream
retix-sstack1996-May-07 00:00:006.2Kapplication/octet-stream
rockwell-cmc.mib1994-May-03 00:00:0044.2Kapplication/octet-stream
scc-enterprise-mib.txt1996-May-20 00:00:001.9Ktext/plain; charset=utf-8
scc-raid7-mib-v1-0.txt1996-May-20 00:00:0014.6Ktext/plain; charset=utf-8
scc-raid7-proxy-mib-v1-0.txt1996-May-20 00:00:008.6Ktext/plain; charset=utf-8
shiva.mib1993-Mar-26 00:00:000.4Kapplication/octet-stream
sk-conc.mib1995-Mar-20 00:00:002.9Kapplication/octet-stream
sk-router.mib1995-Mar-20 00:00:001.4Kapplication/octet-stream
sk-upps.mib1995-Mar-20 00:00:0032.9Kapplication/octet-stream
snanet.mib1994-Jun-07 00:00:0085.4Kapplication/octet-stream
snap-switch.mib1996-Oct-11 00:00:006.1Kapplication/octet-stream
sony.mib1991-Feb-15 00:00:0019.0Kapplication/octet-stream
synoptics.mib1991-Dec-10 00:00:00117.2Kapplication/octet-stream
timeplex.tl1mib.txt1992-Feb-19 00:00:00316.0Ktext/plain; charset=utf-8
timeplex.tl1traps.txt1992-Feb-19 00:00:0012.6Ktext/plain; charset=utf-8
timeplex.umib.txt1992-Feb-19 00:00:0054.8Ktext/plain; charset=utf-8
timeplex.utraps.txt1992-Feb-19 00:00:005.5Ktext/plain; charset=utf-8
twg.mib1990-May-30 00:00:003.6Kapplication/octet-stream
twg.txt1990-Apr-23 00:00:008.0Ktext/plain; charset=utf-8
ub-asm320.mib1991-Dec-20 00:00:0038.5Kapplication/octet-stream
ub-mib-ecm1992-May-04 00:00:0046.0Kapplication/octet-stream
ub-mib-suprv1992-May-04 00:00:0088.3Kapplication/octet-stream
ub.mib1991-Dec-20 00:00:0038.5Kapplication/octet-stream
unisys-timeplex1991-Jun-04 00:00:00105.8Kapplication/octet-stream
unix.mib1991-May-24 00:00:0023.1Kapplication/octet-stream
usr-anic.mib1996-Apr-18 00:00:006.1Kapplication/octet-stream
usr-chassis.mib1996-Apr-18 00:00:0038.7Kapplication/octet-stream
usr-ds0.mib1996-Apr-18 00:00:008.7Kapplication/octet-stream
usr-ds1.mib1996-Apr-18 00:00:007.2Kapplication/octet-stream
usr-dt1.mib1996-Apr-18 00:00:0011.4Kapplication/octet-stream
usr-ids0.mib1996-Apr-18 00:00:008.1Kapplication/octet-stream
usr-idt1.mib1996-Apr-18 00:00:003.6Kapplication/octet-stream
usr-modem.mib1996-Apr-18 00:00:00121.3Kapplication/octet-stream
usr-netw-mgt-card.mib1995-Dec-12 00:00:0027.8Kapplication/octet-stream
usr-pkt-bus-datagram.mib1996-Apr-18 00:00:002.8Kapplication/octet-stream
usr-pkt-bus.mib1995-Dec-12 00:00:009.8Kapplication/octet-stream
usr-trap.mib1996-Apr-18 00:00:0028.6Kapplication/octet-stream
usr-x25-gateway.mib1996-Apr-18 00:00:0011.9Kapplication/octet-stream
usr-x25-lapb.mib1996-Apr-18 00:00:0014.8Kapplication/octet-stream
usr-x25-pad.mib1996-Apr-18 00:00:0057.9Kapplication/octet-stream
usr-x25-wan.mib1996-Apr-18 00:00:0010.8Kapplication/octet-stream
utl1mib1992-Feb-15 00:00:00114.2Kapplication/octet-stream
vitalink.mib1992-Oct-20 00:00:0055.6Kapplication/octet-stream
wellfleet-series7-mib21993-May-06 00:00:00523.6Kapplication/octet-stream
wellfleet-series7.mib1993-Mar-05 00:00:00518.0Kapplication/octet-stream
wellfleet.mib1993-Feb-05 00:00:0064.7Kapplication/octet-stream
x-ddi-adapter.mib1993-Jun-07 00:00:0014.3Kapplication/octet-stream
x-ddi-concentrator.mib1993-Jun-07 00:00:0033.5Kapplication/octet-stream
xircom.mib1993-Apr-08 00:00:001.4Kapplication/octet-stream
xylogics-annex.mib1993-May-03 00:00:0049.0Kapplication/octet-stream
xyplex-boot-client.mib1992-Jul-08 00:00:001.4Kapplication/octet-stream
xyplex-boot-server.mib1992-Jul-08 00:00:0059.6Kapplication/octet-stream
xyplex-bootstrap-client-mib.txt1991-Nov-07 00:00:0014.9Ktext/plain; charset=utf-8
xyplex-bootstrap-server-mib.txt1991-Nov-07 00:00:0070.1Ktext/plain; charset=utf-8
xyplex-character-mib.txt1991-Nov-07 00:00:00122.7Ktext/plain; charset=utf-8
xyplex-character.mib1992-Jul-08 00:00:0093.6Kapplication/octet-stream
xyplex-decnet-mib.txt1992-Jul-08 00:00:0015.2Ktext/plain; charset=utf-8
xyplex-decnet.mib1992-Jul-08 00:00:001.4Kapplication/octet-stream
xyplex-ethernet-hub-mib.txt1991-Nov-07 00:00:0026.1Ktext/plain; charset=utf-8
xyplex-ethernet-hub.mib1992-Jul-08 00:00:0011.5Kapplication/octet-stream
xyplex-ethernet-mib.txt1991-Nov-07 00:00:0026.7Ktext/plain; charset=utf-8
xyplex-ethernet.mib1992-Jul-08 00:00:0011.8Kapplication/octet-stream
xyplex-ieee-ethernet-hub-mib.txt1991-Nov-07 00:00:0043.4Ktext/plain; charset=utf-8
xyplex-ieee-hub.mib1992-Jul-08 00:00:0024.6Kapplication/octet-stream
xyplex-internet-mib.txt1991-Nov-07 00:00:00148.0Ktext/plain; charset=utf-8
xyplex-internet.mib1992-Jul-08 00:00:00160.8Kapplication/octet-stream
xyplex-ipx.mib1992-Jul-08 00:00:0024.6Kapplication/octet-stream
xyplex-lat-mib.txt1991-Nov-07 00:00:0060.8Ktext/plain; charset=utf-8
xyplex-lat.mib1992-Jul-08 00:00:0041.8Kapplication/octet-stream
xyplex-mib-asn11992-Nov-06 00:00:0029.9Kapplication/octet-stream
xyplex-mib.mib1995-Feb-03 00:00:008.9Kapplication/octet-stream
xyplex-mib.txt1991-Jan-31 00:00:0047.1Ktext/plain; charset=utf-8
xyplex-minimal-mib.txt1991-Nov-07 00:00:0048.4Ktext/plain; charset=utf-8
xyplex-minimib.mib1991-Nov-07 00:00:0028.0Kapplication/octet-stream
xyplex-param-client.mib1992-Jul-08 00:00:0018.5Kapplication/octet-stream
xyplex-parameter-client-mib.txt1991-Nov-07 00:00:0033.8Ktext/plain; charset=utf-8
xyplex-system-mib.txt1991-Nov-07 00:00:0045.5Ktext/plain; charset=utf-8
xyplex-system.mib1993-Apr-07 00:00:0045.0Kapplication/octet-stream
xyplex.mib1993-Apr-07 00:00:0028.1Kapplication/octet-stream
lighttpd